Time;durP1;ratioP1;P1;durP2;ratioP2;P2;SDS_P1;SDS_P2;PMS_P1;PMS_P2;Temp;Humidity;BMP_temperature;BMP_pressure;BME280_temperature;BME280_humidity;BME280_pressure;Samples;Min_cycle;Max_cycle;Signal;HPM_P1;HPM_P2
2022/03/13 00:00:52;;;;;;;54.50;30.23;;;;;;;-7.67;93.28;94086.94;5010911;28;20065;-88
2022/03/13 00:03:23;;;;;;;59.55;30.63;;;;;;;-7.75;93.22;94078.22;5011052;28;20490;-87
2022/03/13 00:05:53;;;;;;;56.83;31.42;;;;;;;-7.84;93.13;94074.47;5010613;28;20132;-88
2022/03/13 00:08:28;;;;;;;64.65;31.90;;;;;;;-7.74;93.39;94087.31;5010411;28;20571;-88
2022/03/13 00:10:57;;;;;;;66.22;34.58;;;;;;;-7.83;92.66;94086.09;5014505;28;20427;-88
2022/03/13 00:13:33;;;;;;;61.50;31.65;;;;;;;-7.91;93.32;94081.50;5030389;28;20049;-88
2022/03/13 00:16:12;;;;;;;61.25;30.38;;;;;;;-8.03;93.91;94072.09;5030377;28;20477;-88
2022/03/13 00:18:44;;;;;;;57.67;31.60;;;;;;;-8.14;93.63;94062.66;5030633;28;20054;-88
2022/03/13 00:21:12;;;;;;;60.97;34.38;;;;;;;-8.03;94.85;94082.06;5030195;28;20049;-88
2022/03/13 00:23:39;;;;;;;74.72;37.00;;;;;;;-8.01;94.78;94076.13;5030169;28;20050;-88
2022/03/13 00:26:07;;;;;;;68.75;35.42;;;;;;;-7.97;94.70;94082.59;5030107;28;20045;-88
2022/03/13 00:28:39;;;;;;;54.15;29.23;;;;;;;-7.96;94.04;94075.91;5030085;28;20089;-88
2022/03/13 00:31:06;;;;;;;53.13;27.20;;;;;;;-7.99;93.28;94079.38;5030740;28;20132;-88
2022/03/13 00:33:35;;;;;;;53.22;28.85;;;;;;;-7.97;93.03;94076.81;5033655;28;20319;-88
2022/03/13 00:36:03;;;;;;;61.72;33.83;;;;;;;-8.07;92.95;94072.25;5033692;28;20053;-88
2022/03/13 00:38:33;;;;;;;78.93;39.40;;;;;;;-8.08;92.74;94077.31;5033643;28;20123;-88
2022/03/13 00:41:00;;;;;;;73.78;36.63;;;;;;;-8.19;93.71;94062.91;5033477;28;20060;-88
2022/03/13 00:43:28;;;;;;;66.80;35.40;;;;;;;-8.02;93.95;94079.50;5033410;28;20490;-88
2022/03/13 00:45:57;;;;;;;67.90;34.35;;;;;;;-8.01;94.13;94080.31;5033602;28;20103;-88
2022/03/13 00:48:26;;;;;;;52.67;28.02;;;;;;;-8.00;93.92;94072.78;5028001;28;20054;-88
2022/03/13 00:50:55;;;;;;;48.13;24.80;;;;;;;-8.01;93.92;94068.66;5002301;28;20050;-88
2022/03/13 00:53:21;;;;;;;48.30;24.67;;;;;;;-8.00;93.77;94066.97;5000832;28;20050;-88
2022/03/13 00:55:49;;;;;;;38.67;22.17;;;;;;;-8.01;93.18;94063.66;4993937;28;20046;-88
2022/03/13 00:58:15;;;;;;;43.70;23.50;;;;;;;-8.20;92.43;94053.81;4993617;28;20058;-88
2022/03/13 01:00:42;;;;;;;36.75;21.08;;;;;;;-8.32;92.08;94051.00;4993941;28;20058;-88
2022/03/13 01:03:31;;;;;;;42.83;22.48;;;;;;;-8.27;93.97;94058.28;4993761;28;20042;-88
2022/03/13 01:06:01;;;;;;;42.50;23.75;;;;;;;-8.27;93.63;94064.94;4993611;28;20074;-88
2022/03/13 01:08:28;;;;;;;87.30;51.03;;;;;;;-8.41;93.81;94053.97;5001478;28;20449;-88
2022/03/13 01:10:55;;;;;;;119.45;67.03;;;;;;;-8.39;94.48;94057.19;5012179;28;20057;-88
2022/03/13 01:13:24;;;;;;;73.38;37.72;;;;;;;-8.36;94.65;94062.03;5013051;28;20061;-88
2022/03/13 01:15:59;;;;;;;45.80;25.63;;;;;;;-8.35;93.87;94053.66;5013202;28;20061;-89
2022/03/13 01:18:28;;;;;;;37.03;21.02;;;;;;;-8.34;93.16;94050.28;5012976;28;20109;-88
2022/03/13 01:20:55;;;;;;;36.33;19.83;;;;;;;-8.37;93.25;94042.16;5012916;28;20060;-88
2022/03/13 01:23:27;;;;;;;33.03;18.55;;;;;;;-8.46;92.92;94025.97;5013000;28;20061;-88
2022/03/13 01:26:34;;;;;;;35.90;19.35;;;;;;;-8.40;92.23;94034.81;5012866;28;20454;-89
2022/03/13 01:29:04;;;;;;;33.80;18.05;;;;;;;-8.48;92.53;94033.50;5017249;28;20435;-88
2022/03/13 01:31:33;;;;;;;50.28;23.80;;;;;;;-8.59;92.96;94023.28;5032969;28;20096;-88
2022/03/13 01:34:02;;;;;;;50.85;24.13;;;;;;;-8.50;92.98;94022.81;5032764;28;20077;-88
2022/03/13 01:36:29;;;;;;;127.75;50.45;;;;;;;-8.53;92.66;94004.75;5032763;28;20050;-88
2022/03/13 01:38:59;;;;;;;38.58;21.02;;;;;;;-8.52;92.38;94012.13;5032526;28;20517;-88
2022/03/13 01:41:28;;;;;;;39.83;21.35;;;;;;;-8.51;92.64;94015.41;5032273;28;20055;-88
2022/03/13 01:43:55;;;;;;;50.20;26.55;;;;;;;-8.53;93.09;94017.22;5031322;28;20056;-88
2022/03/13 01:46:22;;;;;;;41.97;23.20;;;;;;;-8.62;93.50;93998.50;5031318;28;21426;-88
2022/03/13 01:48:54;;;;;;;41.35;24.60;;;;;;;-8.59;93.09;93999.19;5012829;28;20082;-88
2022/03/13 01:51:22;;;;;;;39.97;22.98;;;;;;;-8.70;93.59;93974.00;5012996;28;20042;-88
2022/03/13 01:53:52;;;;;;;41.70;22.55;;;;;;;-8.56;93.69;94007.38;5012499;28;20133;-88
2022/03/13 01:56:19;;;;;;;39.70;21.85;;;;;;;-8.64;93.69;94001.09;5012275;28;20100;-88
2022/03/13 01:58:51;;;;;;;40.85;24.35;;;;;;;-8.82;93.91;93980.38;5028032;28;20072;-88
2022/03/13 02:01:18;;;;;;;41.83;24.42;;;;;;;-8.66;93.63;94007.81;5015890;28;20046;-88
2022/03/13 02:03:47;;;;;;;40.50;23.00;;;;;;;-8.64;94.25;94010.25;5016526;28;20060;-87
2022/03/13 02:06:13;;;;;;;43.70;23.80;;;;;;;-8.63;94.63;94014.34;5017338;28;20042;-88
2022/03/13 02:08:42;;;;;;;43.40;24.45;;;;;;;-8.65;94.51;94009.47;5015463;28;20054;-89
2022/03/13 02:11:09;;;;;;;42.35;24.05;;;;;;;-8.76;93.42;94026.56;5013171;28;20048;-88
2022/03/13 02:13:38;;;;;;;44.60;25.38;;;;;;;-8.95;92.60;94019.97;5013726;28;20046;-89
2022/03/13 02:16:06;;;;;;;36.80;21.95;;;;;;;-9.27;93.81;94015.59;5011795;28;20050;-89
2022/03/13 02:18:33;;;;;;;38.65;21.17;;;;;;;-9.51;94.85;94007.56;5012766;28;20497;-89
2022/03/13 02:21:00;;;;;;;39.35;21.63;;;;;;;-9.71;96.33;94001.00;5012511;28;20041;-88
2022/03/13 02:23:29;;;;;;;38.20;22.70;;;;;;;-9.84;97.64;93979.16;5017785;28;20422;-89
2022/03/13 02:25:58;;;;;;;41.75;23.58;;;;;;;-9.62;99.08;94007.22;5011869;28;20750;-88
2022/03/13 02:28:29;;;;;;;45.17;24.48;;;;;;;-9.41;99.90;94010.44;5013345;28;20041;-88
2022/03/13 02:31:00;;;;;;;43.63;25.23;;;;;;;-9.28;99.35;94010.69;5011434;28;20048;-89
2022/03/13 02:33:31;;;;;;;45.72;26.83;;;;;;;-9.17;98.65;94015.97;5012967;28;20065;-88
2022/03/13 02:36:01;;;;;;;40.72;23.65;;;;;;;-9.08;98.53;94019.72;5011326;28;20042;-88
2022/03/13 02:38:30;;;;;;;36.00;20.92;;;;;;;-9.16;97.01;94004.34;5013259;28;20042;-88
2022/03/13 02:40:58;;;;;;;35.75;20.40;;;;;;;-9.04;96.48;94028.66;5011272;28;20070;-88
2022/03/13 02:43:31;;;;;;;36.75;21.90;;;;;;;-9.21;96.22;94003.75;5012638;28;20050;-88
2022/03/13 02:45:58;;;;;;;37.05;21.67;;;;;;;-9.08;95.35;94021.44;5012768;28;20046;-89
2022/03/13 02:48:25;;;;;;;34.70;20.70;;;;;;;-9.10;95.68;94016.50;5027403;28;20053;-89
2022/03/13 02:50:53;;;;;;;34.80;20.63;;;;;;;-9.17;95.74;94003.53;5014866;28;20050;-88
2022/03/13 02:53:20;;;;;;;34.28;22.02;;;;;;;-9.10;95.41;94016.50;5011390;28;20189;-88
2022/03/13 02:55:48;;;;;;;33.85;19.45;;;;;;;-9.23;94.67;94010.50;5011276;28;20053;-89
2022/03/13 02:58:20;;;;;;;53.25;25.85;;;;;;;-9.28;95.29;94013.19;5011288;28;20050;-89
2022/03/13 03:00:49;;;;;;;71.30;30.17;;;;;;;-9.23;95.58;94022.94;5011115;28;20060;-89
2022/03/13 03:03:19;;;;;;;72.40;30.65;;;;;;;-9.58;95.29;93979.66;5011251;28;20060;-89
2022/03/13 03:05:47;;;;;;;58.00;28.25;;;;;;;-9.35;95.53;94022.63;5011143;28;20056;-89
2022/03/13 03:08:14;;;;;;;50.53;26.50;;;;;;;-9.34;96.69;94014.28;5011241;28;20979;-88
2022/03/13 03:10:41;;;;;;;51.63;27.23;;;;;;;-9.32;96.86;94019.97;5011080;28;20053;-89
2022/03/13 03:13:10;;;;;;;57.85;27.63;;;;;;;-9.24;97.37;94017.16;5011174;28;20046;-89
2022/03/13 03:15:39;;;;;;;95.80;41.85;;;;;;;-9.16;96.66;94017.59;5010960;28;20081;-89
2022/03/13 03:18:09;;;;;;;54.83;26.30;;;;;;;-9.14;95.78;94015.84;5011021;28;20132;-88
2022/03/13 03:20:36;;;;;;;44.08;21.65;;;;;;;-9.39;95.17;93969.69;5011198;28;20058;-89
2022/03/13 03:23:05;;;;;;;35.92;18.35;;;;;;;-9.12;94.43;94015.78;5011087;28;20050;-89
2022/03/13 03:25:32;;;;;;;26.98;14.05;;;;;;;-9.13;94.14;94019.94;5010763;28;20145;-88
2022/03/13 03:28:00;;;;;;;24.65;14.75;;;;;;;-9.18;94.11;94006.91;5002486;28;20164;-89
2022/03/13 03:30:30;;;;;;;21.50;12.52;;;;;;;-9.15;94.19;94013.44;5010520;28;20485;-88
2022/03/13 03:33:01;;;;;;;21.75;12.13;;;;;;;-9.29;93.75;94004.94;5011012;28;20065;-88
2022/03/13 03:35:31;;;;;;;18.48;13.18;;;;;;;-9.18;93.65;94023.50;5010880;28;20050;-88
2022/03/13 03:37:58;;;;;;;30.95;19.23;;;;;;;-9.21;93.54;94022.00;5010682;28;20045;-89
2022/03/13 03:40:28;;;;;;;27.58;16.23;;;;;;;-9.26;93.49;94018.91;5010561;28;20089;-89
2022/03/13 03:42:58;;;;;;;28.45;15.18;;;;;;;-9.33;93.72;94017.56;5010702;28;20502;-89
2022/03/13 03:45:25;;;;;;;26.55;15.73;;;;;;;-9.37;94.20;94003.66;5010973;28;20046;-89
2022/03/13 03:47:56;;;;;;;24.95;14.93;;;;;;;-9.55;94.73;93977.03;5010726;28;20506;-89
2022/03/13 03:50:25;;;;;;;25.80;15.48;;;;;;;-9.32;95.38;94000.06;5010781;28;20050;-88
2022/03/13 03:52:55;;;;;;;23.65;14.25;;;;;;;-9.26;95.60;94008.97;5009447;28;20491;-89
2022/03/13 03:55:22;;;;;;;26.08;14.93;;;;;;;-9.33;95.38;93992.66;5010568;28;20053;-89
2022/03/13 03:57:49;;;;;;;23.63;14.27;;;;;;;-9.17;95.35;94005.25;5010614;28;20046;-88
2022/03/13 04:00:19;;;;;;;22.52;14.38;;;;;;;-9.22;95.21;94000.44;5010407;28;20052;-88
2022/03/13 04:02:47;;;;;;;20.98;12.02;;;;;;;-9.15;94.02;94008.44;5010643;28;20049;-88
2022/03/13 04:05:15;;;;;;;22.65;13.48;;;;;;;-9.13;94.51;94006.69;5010294;28;20054;-89
2022/03/13 04:07:43;;;;;;;22.33;13.38;;;;;;;-9.08;94.06;94004.00;5013839;28;20046;-88
2022/03/13 04:10:10;;;;;;;23.15;13.20;;;;;;;-9.07;94.71;94003.94;5014450;28;20400;-88
2022/03/13 04:12:38;;;;;;;26.42;14.32;;;;;;;-9.01;94.46;94000.34;5014251;28;20045;-88
2022/03/13 04:15:06;;;;;;;29.00;16.08;;;;;;;-8.90;94.21;94003.13;5014453;28;20050;-88
2022/03/13 04:17:34;;;;;;;33.13;16.63;;;;;;;-8.96;93.81;93987.66;5014240;28;20049;-88
2022/03/13 04:20:05;;;;;;;41.65;17.75;;;;;;;-8.86;93.80;93999.63;5014009;28;20054;-88
2022/03/13 04:22:34;;;;;;;36.97;17.15;;;;;;;-8.85;93.34;94000.41;5014387;28;20061;-88
2022/03/13 04:25:00;;;;;;;34.10;19.67;;;;;;;-8.76;93.88;94006.66;5014506;28;20498;-88
2022/03/13 04:27:30;;;;;;;27.35;15.07;;;;;;;-8.76;93.53;93992.53;5014152;28;20057;-88
2022/03/13 04:29:57;;;;;;;27.45;15.68;;;;;;;-8.69;93.12;94005.50;5014088;28;20077;-88
2022/03/13 04:32:24;;;;;;;28.73;15.68;;;;;;;-8.71;92.56;94004.75;5014071;28;20052;-88
2022/03/13 04:34:52;;;;;;;42.10;21.17;;;;;;;-8.68;93.11;94002.13;5013874;28;20636;-89
2022/03/13 04:37:21;;;;;;;41.78;21.05;;;;;;;-8.77;93.53;93968.50;5013972;28;20042;-88
2022/03/13 04:39:51;;;;;;;31.77;18.48;;;;;;;-8.58;93.36;93999.97;5013831;28;20042;-88
2022/03/13 04:42:18;;;;;;;35.72;20.08;;;;;;;-8.54;92.89;93995.66;5013778;28;20058;-89
2022/03/13 04:44:46;;;;;;;32.92;16.63;;;;;;;-8.62;91.90;93984.38;5013726;28;20042;-89
2022/03/13 04:47:13;;;;;;;30.60;16.90;;;;;;;-8.52;92.90;93997.19;5030348;28;20045;-88
2022/03/13 04:49:40;;;;;;;31.08;17.13;;;;;;;-8.49;93.19;93996.22;5033760;28;20041;-88
2022/03/13 04:52:09;;;;;;;41.88;21.02;;;;;;;-8.47;93.31;94002.72;5017070;28;20057;-89
2022/03/13 04:54:35;;;;;;;49.40;24.83;;;;;;;-8.49;93.20;93994.53;5013555;28;20054;-88
2022/03/13 04:57:04;;;;;;;55.33;26.92;;;;;;;-8.57;92.86;93984.16;5012256;28;20049;-88
2022/03/13 04:59:32;;;;;;;41.88;21.65;;;;;;;-8.50;93.21;94007.88;5012123;28;20058;-88
2022/03/13 05:02:00;;;;;;;67.80;30.27;;;;;;;-8.64;93.80;94008.56;5013076;28;20108;-88
2022/03/13 05:04:26;;;;;;;165.25;72.90;;;;;;;-8.72;94.58;94006.44;5013178;28;20137;-88
2022/03/13 05:06:53;;;;;;;107.68;48.20;;;;;;;-8.63;95.29;94006.88;5012667;28;20046;-88
2022/03/13 05:09:20;;;;;;;81.28;38.45;;;;;;;-8.52;96.47;94003.88;5013093;28;20521;-88
2022/03/13 05:11:47;;;;;;;62.30;32.67;;;;;;;-8.49;96.22;94002.00;5012226;28;20056;-88
2022/03/13 05:14:16;;;;;;;59.85;31.17;;;;;;;-8.28;96.20;94003.53;5024325;28;20050;-88
2022/03/13 05:16:42;;;;;;;60.78;31.98;;;;;;;-8.13;95.03;94002.75;5014667;28;20038;-88
2022/03/13 05:19:12;;;;;;;61.20;35.67;;;;;;;-8.19;94.36;93973.16;5010393;28;20056;-88
2022/03/13 05:21:41;;;;;;;50.92;29.27;;;;;;;-8.36;94.08;94016.34;5013067;28;20161;-88
2022/03/13 05:24:08;;;;;;;32.78;19.02;;;;;;;-9.00;96.57;93982.03;5022872;28;20064;-88
2022/03/13 05:26:35;;;;;;;42.28;23.90;;;;;;;-8.74;97.33;93998.22;5023016;28;20045;-88
2022/03/13 05:29:02;;;;;;;33.53;19.77;;;;;;;-8.82;97.60;94002.78;5012855;28;20391;-88
2022/03/13 05:31:33;;;;;;;34.83;20.25;;;;;;;-8.93;98.53;94009.94;5012870;28;20502;-88
2022/03/13 05:33:59;;;;;;;50.55;26.52;;;;;;;-8.90;99.16;94010.59;5012925;28;20049;-87
2022/03/13 05:36:26;;;;;;;56.30;28.20;;;;;;;-9.10;100.00;94011.53;5023877;28;20046;-88
2022/03/13 05:38:53;;;;;;;49.97;29.25;;;;;;;-9.28;100.00;94023.94;5032392;28;20103;-88
2022/03/13 05:41:22;;;;;;;57.03;26.63;;;;;;;-9.39;100.00;93989.59;5032337;28;20056;-88
2022/03/13 05:43:49;;;;;;;44.22;24.50;;;;;;;-9.01;100.00;94021.06;5032905;28;20056;-88
2022/03/13 05:46:16;;;;;;;44.42;24.48;;;;;;;-8.70;100.00;94015.53;5032425;28;20482;-88
2022/03/13 05:48:44;;;;;;;50.45;27.00;;;;;;;-8.48;100.00;94021.06;5032380;28;20165;-87
2022/03/13 05:51:11;;;;;;;48.50;26.88;;;;;;;-8.25;100.00;94006.66;5030729;28;20046;-88
2022/03/13 05:53:38;;;;;;;54.17;25.25;;;;;;;-8.15;98.64;94024.44;5028946;28;20490;-88
2022/03/13 05:56:05;;;;;;;44.22;23.27;;;;;;;-8.02;98.61;94004.72;5032517;28;20103;-88
2022/03/13 05:58:32;;;;;;;44.20;24.55;;;;;;;-7.75;97.02;94030.81;5032005;28;20053;-88
2022/03/13 06:01:04;;;;;;;48.38;24.27;;;;;;;-7.78;95.98;94010.13;5031793;28;20049;-88
2022/03/13 06:03:31;;;;;;;52.40;25.35;;;;;;;-7.54;95.53;94027.22;5032313;28;20493;-88
2022/03/13 06:06:01;;;;;;;53.03;26.95;;;;;;;-7.39;96.04;94023.13;5022009;28;20049;-88
2022/03/13 06:08:27;;;;;;;89.82;47.75;;;;;;;-7.16;96.35;94035.28;5011952;28;20486;-88
2022/03/13 06:10:54;;;;;;;60.75;31.10;;;;;;;-6.88;94.80;94032.13;5012093;28;20116;-88
2022/03/13 06:13:32;;;;;;;;;;;;;;;;;;;;;
2022/03/13 06:15:59;;;;;;;62.30;30.65;;;;;;;-6.63;92.79;94034.97;5030135;28;20049;-88
2022/03/13 06:18:27;;;;;;;53.45;28.52;;;;;;;-6.42;93.21;94027.97;5031830;28;20099;-88
2022/03/13 06:20:54;;;;;;;69.28;32.13;;;;;;;-6.26;92.39;94030.38;5031514;28;20540;-88
2022/03/13 06:23:23;;;;;;;120.80;65.97;;;;;;;-6.11;91.34;94021.19;5031899;28;20045;-88
2022/03/13 06:25:50;;;;;;;69.75;33.63;;;;;;;-5.97;90.65;94022.88;5026175;28;20045;-88
2022/03/13 06:28:19;;;;;;;73.25;34.85;;;;;;;-5.80;89.54;94023.59;5012001;28;20049;-88
2022/03/13 06:30:46;;;;;;;75.30;33.90;;;;;;;-5.65;88.79;94029.41;5011581;28;20137;-87
2022/03/13 06:33:13;;;;;;;92.38;42.70;;;;;;;-5.44;89.09;94027.31;5012034;28;20409;-88
2022/03/13 06:35:40;;;;;;;87.13;41.58;;;;;;;-5.26;88.96;94030.44;5011704;28;20058;-88
2022/03/13 06:38:06;;;;;;;90.13;42.55;;;;;;;-5.24;87.49;94008.59;5012014;28;20170;-88
2022/03/13 06:40:35;;;;;;;113.93;49.42;;;;;;;-5.25;85.98;94021.19;5011803;28;20050;-88
2022/03/13 06:43:03;;;;;;;137.77;62.10;;;;;;;-5.56;84.64;94015.56;5011605;28;20076;-88
2022/03/13 06:45:32;;;;;;;125.10;58.20;;;;;;;-5.56;86.43;94028.06;5011758;28;20053;-88
2022/03/13 06:47:59;;;;;;;111.65;53.75;;;;;;;-5.44;87.32;94029.84;5014408;28;20049;-87
2022/03/13 06:50:26;;;;;;;106.97;53.00;;;;;;;-5.32;89.00;94008.28;5031444;28;20498;-88
2022/03/13 06:52:55;;;;;;;102.07;50.15;;;;;;;-4.93;88.40;94033.47;5031551;28;20050;-88
2022/03/13 06:55:25;;;;;;;98.07;46.83;;;;;;;-5.01;86.41;94033.13;5031571;28;20056;-87
2022/03/13 06:57:53;;;;;;;89.70;39.35;;;;;;;-5.05;84.42;94034.22;5031144;28;20096;-85
2022/03/13 07:00:22;;;;;;;79.85;35.83;;;;;;;-5.14;84.52;94035.59;5031335;28;20104;-86
2022/03/13 07:02:49;;;;;;;61.80;28.17;;;;;;;-5.42;84.78;94000.50;5030664;28;20518;-88
2022/03/13 07:05:19;;;;;;;60.85;29.08;;;;;;;-4.84;85.46;94017.88;5031137;28;20052;-87
2022/03/13 07:07:46;;;;;;;51.65;23.50;;;;;;;-4.74;80.02;94014.75;5030844;28;20501;-87
2022/03/13 07:10:17;;;;;;;44.35;20.17;;;;;;;-4.68;74.73;94021.09;5031658;28;20107;-87
2022/03/13 07:12:44;;;;;;;53.55;22.60;;;;;;;-4.31;77.37;94026.28;5021446;28;20046;-86
2022/03/13 07:15:13;;;;;;;52.35;24.08;;;;;;;-4.18;74.39;94013.75;5010937;28;20096;-87
2022/03/13 07:18:05;;;;;;;47.80;24.25;;;;;;;-4.38;75.75;93953.16;5012179;28;20100;-88
2022/03/13 07:21:11;;;;;;;57.78;25.75;;;;;;;-4.45;80.60;93884.22;4893360;29;20612;-87
2022/03/13 07:24:27;;;;;;;59.35;28.40;;;;;;;-3.68;76.74;93952.75;4955079;28;20132;-88
2022/03/13 07:27:04;;;;;;;72.75;32.67;;;;;;;-3.25;73.22;94001.75;5010336;28;20136;-88
2022/03/13 07:29:33;;;;;;;74.82;34.70;;;;;;;-3.06;74.54;94008.84;5010789;28;20042;-88
2022/03/13 07:32:02;;;;;;;73.65;32.00;;;;;;;-3.03;74.78;94012.84;5010856;28;20062;-88
2022/03/13 07:34:29;;;;;;;71.80;32.33;;;;;;;-3.27;77.25;94011.13;5010928;28;20046;-89
2022/03/13 07:36:56;;;;;;;72.75;33.35;;;;;;;-3.10;76.60;94010.75;5010868;28;20082;-90
2022/03/13 07:39:26;;;;;;;70.13;32.65;;;;;;;-2.84;74.17;94014.88;5010897;28;20046;-90
2022/03/13 07:42:00;;;;;;;101.18;39.58;;;;;;;-3.02;75.48;93996.88;5012962;28;20533;-89
2022/03/13 07:44:30;;;;;;;85.45;35.92;;;;;;;-2.52;79.87;94005.97;5021824;28;20049;-92
2022/03/13 07:47:00;;;;;;;88.20;36.75;;;;;;;-2.14;77.51;94004.91;5034646;28;20041;-91
2022/03/13 07:49:48;;;;;;;;;;;;;;;;;;;;;
2022/03/13 07:52:17;;;;;;;88.10;37.08;;;;;;;-1.33;75.96;93985.56;5029147;28;20096;-93
2022/03/13 07:54:44;;;;;;;73.80;32.70;;;;;;;-1.05;68.92;94013.69;5034444;28;20391;-92
2022/03/13 07:57:14;;;;;;;92.88;41.50;;;;;;;-1.84;70.24;94003.59;5034746;28;20045;-93
2022/03/13 07:59:47;;;;;;;98.53;40.75;;;;;;;-2.03;69.77;93979.75;5034632;28;20061;-93
2022/03/13 08:02:16;;;;;;;69.18;30.23;;;;;;;-1.78;67.22;94007.34;5034426;28;20053;-94
2022/03/13 08:05:03;;;;;;;;;;;;;;;;;;;;;
2022/03/13 08:14:34;;;;;;;66.88;30.73;;;;;;;-0.77;63.27;93993.88;5017823;23;20132;-78
2022/03/13 08:17:01;;;;;;;114.97;52.30;;;;;;;-0.55;65.48;93987.97;5012809;28;20387;-78
2022/03/13 08:19:28;;;;;;;83.43;29.92;;;;;;;-1.16;62.92;93989.31;5012537;28;20490;-78
2022/03/13 08:21:56;;;;;;;93.25;41.28;;;;;;;-0.78;62.74;93975.44;5012555;28;20074;-78
2022/03/13 08:24:24;;;;;;;99.65;42.08;;;;;;;-0.59;61.97;93962.16;5012235;28;20513;-79
2022/03/13 08:26:51;;;;;;;81.07;35.25;;;;;;;-0.59;63.64;93953.78;5010019;28;20053;-78
2022/03/13 08:29:18;;;;;;;76.45;32.08;;;;;;;0.08;67.55;93976.19;5007170;28;20061;-78
2022/03/13 08:31:45;;;;;;;77.90;31.65;;;;;;;0.14;67.28;93902.47;5012001;28;20050;-79
2022/03/13 08:34:11;;;;;;;50.60;20.55;;;;;;;0.57;56.05;93976.41;5007142;28;20129;-79
2022/03/13 08:36:39;;;;;;;49.35;21.08;;;;;;;0.46;56.65;93981.56;4992994;28;20057;-78
2022/03/13 08:39:09;;;;;;;54.08;23.63;;;;;;;0.48;56.92;93979.69;5022938;28;20049;-78
2022/03/13 08:41:37;;;;;;;49.08;21.38;;;;;;;0.05;55.61;93973.94;5031937;28;20506;-78
2022/03/13 08:44:04;;;;;;;40.90;19.80;;;;;;;0.09;55.51;93983.66;5031674;28;20104;-78
2022/03/13 08:46:31;;;;;;;62.65;24.45;;;;;;;0.27;58.32;93978.00;5031721;28;20042;-78
2022/03/13 08:48:58;;;;;;;54.97;20.77;;;;;;;0.11;55.89;93971.72;5040218;28;20044;-78
2022/03/13 08:51:27;;;;;;;39.53;15.25;;;;;;;0.02;55.49;93952.25;5031464;28;20045;-78
2022/03/13 08:53:55;;;;;;;47.88;16.55;;;;;;;0.41;56.33;93978.59;5031697;28;20056;-78
2022/03/13 08:56:24;;;;;;;49.67;18.77;;;;;;;0.96;59.68;93970.59;5031285;28;20148;-78
2022/03/13 08:58:52;;;;;;;45.00;19.08;;;;;;;1.35;55.45;93953.84;5031877;28;20100;-78
2022/03/13 09:01:19;;;;;;;25.45;11.07;;;;;;;1.97;53.10;93972.00;5031335;28;20429;-78
2022/03/13 09:03:46;;;;;;;34.83;14.25;;;;;;;2.18;53.93;93934.72;5031540;28;20081;-78
2022/03/13 09:06:13;;;;;;;31.42;15.65;;;;;;;2.85;54.42;93949.72;5031320;28;20049;-78
2022/03/13 09:08:40;;;;;;;29.40;11.15;;;;;;;2.86;49.72;93923.38;5031138;28;20046;-78
2022/03/13 09:11:07;;;;;;;24.83;12.07;;;;;;;3.36;50.73;93950.94;5031718;28;20587;-79
2022/03/13 09:13:36;;;;;;;27.05;12.48;;;;;;;3.67;49.19;93956.44;5031736;28;20058;-79
2022/03/13 09:16:03;;;;;;;30.77;12.63;;;;;;;3.85;50.12;93935.25;5031187;28;20516;-78
2022/03/13 09:18:30;;;;;;;26.77;13.30;;;;;;;4.12;46.78;93948.75;5031015;28;20048;-79
2022/03/13 09:21:06;;;;;;;24.33;11.63;;;;;;;4.11;43.25;93925.06;5031385;28;20050;-78
2022/03/13 09:23:34;;;;;;;44.25;17.58;;;;;;;3.41;43.10;93936.88;5031175;28;20427;-78
2022/03/13 09:26:00;;;;;;;54.05;19.33;;;;;;;2.76;42.71;93936.16;5030023;28;20521;-77
2022/03/13 09:28:29;;;;;;;41.78;17.83;;;;;;;2.71;43.93;93915.47;5029402;28;20083;-78
2022/03/13 09:30:58;;;;;;;32.58;14.10;;;;;;;2.22;40.88;93930.97;5023158;28;20516;-77
2022/03/13 09:33:27;;;;;;;47.97;19.60;;;;;;;1.97;40.03;93874.91;5019030;28;20052;-77
2022/03/13 09:35:54;;;;;;;39.08;17.27;;;;;;;2.72;44.41;93903.59;5031086;28;20508;-76
2022/03/13 09:38:21;;;;;;;44.45;13.00;;;;;;;2.71;39.59;93928.16;5030737;28;20052;-76
2022/03/13 09:40:48;;;;;;;20.17;7.65;;;;;;;3.00;39.12;93917.00;5031294;28;20056;-76
2022/03/13 09:43:15;;;;;;;22.73;8.07;;;;;;;3.30;35.80;93919.31;5030786;28;20053;-76
2022/03/13 09:45:42;;;;;;;18.08;9.05;;;;;;;3.34;35.28;93915.56;5031030;28;20045;-76
2022/03/13 09:48:10;;;;;;;21.33;8.82;;;;;;;3.72;34.01;93913.59;5030667;28;20045;-76
2022/03/13 09:50:39;;;;;;;28.75;12.18;;;;;;;3.28;38.74;93909.31;5030771;28;20074;-76
2022/03/13 09:53:06;;;;;;;21.88;9.60;;;;;;;3.04;35.37;93885.31;5030730;28;20049;-76
2022/03/13 09:55:33;;;;;;;21.10;9.30;;;;;;;3.02;35.37;93906.72;5031013;28;20049;-76
2022/03/13 09:58:00;;;;;;;15.60;7.60;;;;;;;2.61;32.17;93913.00;5030853;28;20133;-76
2022/03/13 10:00:26;;;;;;;29.85;11.32;;;;;;;2.30;32.64;93905.69;5028223;28;20053;-76
2022/03/13 10:02:54;;;;;;;27.25;11.48;;;;;;;2.34;35.57;93901.13;5028706;28;20108;-76
2022/03/13 10:05:24;;;;;;;21.45;9.45;;;;;;;2.84;37.74;93881.34;5029528;28;20063;-76
2022/03/13 10:08:01;;;;;;;18.77;9.32;;;;;;;3.64;38.17;93895.75;5029907;28;20157;-76
2022/03/13 10:10:30;;;;;;;13.13;6.18;;;;;;;3.72;31.57;93893.25;5027134;28;20054;-76
2022/03/13 10:12:57;;;;;;;16.08;9.48;;;;;;;3.41;29.82;93886.06;5021618;28;20061;-76
2022/03/13 10:15:25;;;;;;;17.77;8.68;;;;;;;3.11;30.85;93872.03;4995870;28;20438;-77
2022/03/13 10:17:52;;;;;;;18.05;7.45;;;;;;;3.69;32.87;93880.03;5030090;28;20068;-76
2022/03/13 10:20:24;;;;;;;17.27;6.93;;;;;;;4.13;32.51;93879.16;5030289;28;20053;-76
2022/03/13 10:23:03;;;;;;;15.88;6.97;;;;;;;3.39;31.57;93842.25;5030076;28;20136;-76
2022/03/13 10:25:32;;;;;;;10.95;6.30;;;;;;;4.21;34.56;93878.38;5030256;28;20062;-76
2022/03/13 10:28:16;;;;;;;20.42;10.25;;;;;;;4.59;32.00;93872.91;5029790;28;20046;-76
2022/03/13 10:30:45;;;;;;;18.98;9.07;;;;;;;5.03;35.31;93877.75;5024890;28;21666;-77
2022/03/13 10:33:12;;;;;;;17.42;8.82;;;;;;;5.20;32.78;93867.56;5010290;28;20045;-76
2022/03/13 10:35:41;;;;;;;13.88;6.53;;;;;;;5.24;31.67;93868.84;5009924;28;20046;-76
2022/03/13 10:38:15;;;;;;;10.57;5.28;;;;;;;4.40;28.50;93855.22;5010468;28;20053;-76
2022/03/13 10:40:42;;;;;;;10.45;4.20;;;;;;;5.07;30.25;93863.75;5027772;28;20108;-76
2022/03/13 10:43:09;;;;;;;13.35;5.15;;;;;;;5.02;28.97;93865.97;5029805;28;20101;-77
2022/03/13 10:45:37;;;;;;;10.27;4.35;;;;;;;4.85;29.96;93862.63;5030406;28;20091;-77
2022/03/13 10:48:28;;;;;;;19.58;4.50;;;;;;;4.54;28.65;93861.44;5030406;28;20127;-77
2022/03/13 10:50:58;;;;;;;24.25;5.78;;;;;;;5.13;31.63;93858.97;5029342;28;20107;-76
2022/03/13 10:53:26;;;;;;;10.98;3.78;;;;;;;5.03;29.45;93862.47;5029438;28;20514;-77
2022/03/13 10:56:09;;;;;;;5.78;3.10;;;;;;;5.47;30.32;93863.88;5029741;28;20049;-77
2022/03/13 10:58:39;;;;;;;4.55;2.20;;;;;;;5.25;28.42;93861.97;5013097;28;20046;-77
2022/03/13 11:01:09;;;;;;;4.93;2.20;;;;;;;5.28;27.41;93851.47;5023208;28;20152;-76
2022/03/13 11:03:47;;;;;;;5.22;2.00;;;;;;;4.74;26.19;93858.63;5029564;28;20049;-77
2022/03/13 11:06:16;;;;;;;4.22;2.92;;;;;;;4.75;26.16;93857.69;5029531;28;20100;-77
2022/03/13 11:08:42;;;;;;;5.85;3.20;;;;;;;4.84;26.67;93852.59;5029748;28;20445;-77
2022/03/13 11:11:15;;;;;;;8.90;4.20;;;;;;;4.56;27.73;93848.59;5029540;28;20041;-77
2022/03/13 11:13:43;;;;;;;6.43;3.65;;;;;;;4.10;29.64;93831.94;5024556;28;20099;-76
2022/03/13 11:16:11;;;;;;;14.32;6.10;;;;;;;4.48;29.39;93851.91;5029160;28;20045;-76
2022/03/13 11:18:38;;;;;;;5.78;2.95;;;;;;;4.35;28.75;93854.09;5029238;28;20064;-77
2022/03/13 11:21:08;;;;;;;4.07;2.45;;;;;;;3.42;28.70;93834.31;5029268;28;20049;-76
2022/03/13 11:23:36;;;;;;;4.07;2.58;;;;;;;3.73;28.96;93831.31;5029089;28;20057;-77
2022/03/13 11:26:05;;;;;;;5.68;3.10;;;;;;;2.99;29.81;93858.78;5028538;28;20127;-76
2022/03/13 11:28:32;;;;;;;6.22;3.10;;;;;;;3.06;28.07;93852.19;5020060;28;20038;-77
2022/03/13 11:30:59;;;;;;;6.13;3.00;;;;;;;3.37;29.93;93844.13;5029371;28;20049;-76
2022/03/13 11:33:34;;;;;;;3.63;2.58;;;;;;;3.19;29.23;93819.59;5029976;28;20045;-77
2022/03/13 11:36:30;;;;;;;5.20;2.95;;;;;;;3.04;28.73;93856.59;5028001;28;20392;-77
2022/03/13 11:39:00;;;;;;;9.45;5.05;;;;;;;3.04;29.42;93821.88;5015076;28;20529;-77
2022/03/13 11:41:35;;;;;;;4.97;3.30;;;;;;;3.24;31.80;93833.59;5028141;28;20046;-76